Time;durP1;ratioP1;P1;durP2;ratioP2;P2;SDS_P1;SDS_P2;PMS_P1;PMS_P2;Temp;Humidity;BMP_temperature;BMP_pressure;BME280_temperature;BME280_humidity;BME280_pressure;Samples;Min_cycle;Max_cycle;Signal;HPM_P1;HPM_P2
2022/09/04 00:01:15;;;;;;;5.55;4.15;;;21.20;73.80;;;;;;5036179;28;20026;-90
2022/09/04 00:04:07;;;;;;;7.75;4.07;;;21.10;73.90;;;;;;5035533;28;20483;-89
2022/09/04 00:06:39;;;;;;;5.10;4.38;;;21.10;74.00;;;;;;5035664;28;20056;-92
2022/09/04 00:09:35;;;;;;;8.18;4.70;;;21.10;74.00;;;;;;5036396;28;20022;-90
2022/09/04 00:12:03;;;;;;;5.68;4.88;;;21.10;74.10;;;;;;5036920;28;20154;-91
2022/09/04 00:14:52;;;;;;;6.55;5.10;;;21.00;74.10;;;;;;5036879;28;20021;-92
2022/09/04 00:17:47;;;;;;;6.90;4.95;;;21.10;74.50;;;;;;5036949;28;20121;-88
2022/09/04 00:20:41;;;;;;;7.00;4.90;;;21.00;74.70;;;;;;5036306;28;20025;-90
2022/09/04 00:23:37;;;;;;;6.53;5.03;;;21.00;74.80;;;;;;5036661;28;20041;-91
2022/09/04 00:26:16;;;;;;;5.38;4.88;;;21.00;74.90;;;;;;5021087;28;20045;-90
2022/09/04 00:28:52;;;;;;;6.38;4.63;;;20.90;75.00;;;;;;5036326;28;20037;-90
2022/09/04 00:31:57;;;;;;;8.90;5.15;;;20.90;75.10;;;;;;5054560;28;20056;-92
2022/09/04 00:34:51;;;;;;;6.40;5.15;;;20.80;75.30;;;;;;5055549;28;20048;-89
2022/09/04 00:37:24;;;;;;;6.80;5.40;;;20.80;75.60;;;;;;5056392;28;20025;-89
2022/09/04 00:40:10;;;;;;;5.13;4.63;;;20.80;75.70;;;;;;5056533;28;20039;-91
2022/09/04 00:43:26;;;;;;;5.65;4.70;;;20.80;75.80;;;;;;5056555;28;20196;-91
2022/09/04 00:49:26;;;;;;;5.32;4.60;;;20.80;76.00;;;;;;5058120;28;20029;-91
2022/09/04 00:52:17;;;;;;;6.35;5.05;;;20.80;76.30;;;;;;5056700;28;20021;-90
2022/09/04 00:55:30;;;;;;;5.65;5.07;;;20.70;76.60;;;;;;5055671;28;20029;-91
2022/09/04 00:58:37;;;;;;;6.32;4.88;;;20.70;76.70;;;;;;5003706;28;20543;-89
2022/09/04 01:01:11;;;;;;;5.07;4.57;;;20.70;76.80;;;;;;4996481;28;20054;-89
2022/09/04 01:04:18;;;;;;;5.32;4.82;;;20.70;77.00;;;;;;4964840;28;20046;-91
2022/09/04 01:07:08;;;;;;;5.78;4.97;;;20.70;77.30;;;;;;5057746;28;20403;-89
2022/09/04 01:10:07;;;;;;;6.32;5.32;;;20.70;77.50;;;;;;5056324;28;20022;-90
2022/09/04 01:12:39;;;;;;;8.23;5.25;;;20.70;77.80;;;;;;5056299;28;20059;-90
2022/09/04 01:15:28;;;;;;;6.20;5.40;;;20.60;78.00;;;;;;5056203;28;20156;-91
2022/09/04 01:18:15;;;;;;;8.98;5.68;;;20.60;78.30;;;;;;5056979;28;20047;-90
2022/09/04 01:20:53;;;;;;;7.10;5.65;;;20.70;78.60;;;;;;5063046;28;20013;-91
2022/09/04 01:23:57;;;;;;;5.88;4.90;;;20.60;79.00;;;;;;5075344;28;20465;-93
2022/09/04 01:27:01;;;;;;;5.95;5.13;;;20.60;79.30;;;;;;5075290;28;20128;-91
2022/09/04 01:29:52;;;;;;;5.95;5.22;;;20.50;79.70;;;;;;5077640;28;20057;-95
2022/09/04 01:33:01;;;;;;;6.38;5.78;;;20.50;80.00;;;;;;5077916;28;20081;-91
2022/09/04 01:36:21;;;;;;;7.93;5.57;;;20.50;80.30;;;;;;5059328;28;20029;-89
2022/09/04 01:42:17;;;;;;;8.32;5.88;;;20.40;80.90;;;;;;5076647;28;20040;-92
2022/09/04 01:44:56;;;;;;;6.80;5.85;;;20.50;81.30;;;;;;5081018;28;20021;-92
2022/09/04 01:47:45;;;;;;;8.02;5.70;;;20.40;81.60;;;;;;5063522;28;20056;-91
2022/09/04 01:50:30;;;;;;;7.30;5.35;;;20.40;81.80;;;;;;5081042;28;20021;-91
2022/09/04 01:53:18;;;;;;;7.40;5.63;;;20.40;81.90;;;;;;5063205;28;20052;-91
2022/09/04 01:56:28;;;;;;;6.03;5.13;;;20.50;82.00;;;;;;5063626;28;20048;-92
2022/09/04 01:59:33;;;;;;;;;;;;;;;;;;;;;
2022/09/04 02:06:21;;;;;;;;;;;;;;;;;;;;;
2022/09/04 02:09:10;;;;;;;6.03;5.35;;;20.50;82.70;;;;;;5019208;28;20121;-91
2022/09/04 02:11:52;;;;;;;6.78;5.70;;;20.40;82.70;;;;;;5002361;28;20030;-91
2022/09/04 02:14:43;;;;;;;5.97;5.18;;;20.50;82.80;;;;;;4986421;28;20507;-91
2022/09/04 02:17:31;;;;;;;6.40;5.70;;;20.50;82.80;;;;;;5043651;28;20032;-90
2022/09/04 02:20:10;;;;;;;6.78;5.28;;;20.50;82.90;;;;;;5065205;28;20036;-91
2022/09/04 02:23:22;;;;;;;6.43;5.70;;;20.40;82.80;;;;;;5046114;28;20036;-92
2022/09/04 02:26:42;;;;;;;7.55;6.38;;;20.50;83.00;;;;;;5062326;28;20532;-90
2022/09/04 02:32:49;;;;;;;5.93;5.32;;;20.40;83.30;;;;;;5080587;28;20032;-91
2022/09/04 02:35:22;;;;;;;7.57;6.40;;;20.40;83.30;;;;;;5057882;28;20092;-91
2022/09/04 02:38:28;;;;;;;6.78;6.07;;;20.30;83.50;;;;;;5079285;28;20058;-92
2022/09/04 02:45:12;;;;;;;6.93;5.90;;;20.30;84.00;;;;;;4988058;28;20042;-95
2022/09/04 02:48:27;;;;;;;6.47;5.72;;;20.20;84.30;;;;;;4997738;28;20031;-92
2022/09/04 02:55:32;;;;;;;6.70;5.97;;;20.20;84.40;;;;;;4956072;28;20034;-92
2022/09/04 02:58:22;;;;;;;7.72;6.45;;;20.20;84.30;;;;;;4924623;28;20030;-91
2022/09/04 03:01:00;;;;;;;7.38;6.25;;;20.20;84.20;;;;;;4982817;28;20466;-92
2022/09/04 03:04:19;;;;;;;;;;;;;;;;;;;;;
2022/09/04 03:07:03;;;;;;;7.00;6.10;;;20.30;84.50;;;;;;5042709;28;20152;-91
2022/09/04 03:09:57;;;;;;;7.38;6.18;;;20.20;84.50;;;;;;5062806;28;20100;-90
2022/09/04 03:13:05;;;;;;;7.47;5.95;;;20.20;84.70;;;;;;5065269;28;20024;-90
2022/09/04 03:16:36;;;;;;;;;;;;;;;;;;;;;
2022/09/04 03:22:44;;;;;;;7.07;6.15;;;20.20;84.50;;;;;;5057142;28;20024;-92
2022/09/04 03:29:21;;;;;;;;;;;;;;;;;;;;;
2022/09/04 03:32:17;;;;;;;8.55;6.75;;;20.10;84.50;;;;;;5094877;28;20059;-94
2022/09/04 03:35:17;;;;;;;;;;;;;;;;;;;;;
2022/09/04 03:38:21;;;;;;;7.93;7.10;;;20.00;85.00;;;;;;5080562;28;20396;-92
2022/09/04 03:41:29;;;;;;;7.53;6.78;;;20.00;85.20;;;;;;5062071;28;20082;-89
2022/09/04 03:44:49;;;;;;;;;;;;;;;;;;;;;
2022/09/04 03:47:41;;;;;;;7.97;6.63;;;20.00;85.30;;;;;;5079679;28;20111;-91
2022/09/04 03:50:38;;;;;;;7.82;6.93;;;20.00;85.30;;;;;;4981176;28;20145;-91
2022/09/04 03:53:24;;;;;;;7.55;6.85;;;19.90;85.30;;;;;;4996933;28;20038;-91
2022/09/04 03:56:29;;;;;;;8.50;7.07;;;20.00;85.30;;;;;;5059547;28;20047;-91
2022/09/04 03:59:32;;;;;;;;;;;;;;;;;;;;;
2022/09/04 04:02:35;;;;;;;8.38;7.57;;;19.90;85.50;;;;;;5052523;28;20127;-92
2022/09/04 04:05:36;;;;;;;8.65;7.60;;;19.90;85.70;;;;;;5060298;28;20459;-89
2022/09/04 04:08:35;;;;;;;8.23;7.43;;;19.90;85.80;;;;;;5060140;28;20472;-90
2022/09/04 04:11:44;;;;;;;8.13;7.32;;;19.90;86.00;;;;;;5061060;28;20017;-92
2022/09/04 04:14:16;;;;;;;9.60;7.65;;;19.90;86.10;;;;;;5060127;28;20116;-90
2022/09/04 04:17:23;;;;;;;8.50;7.65;;;19.80;86.30;;;;;;5060669;28;20021;-91
2022/09/04 04:20:21;;;;;;;9.10;8.20;;;19.80;86.40;;;;;;5060719;28;20516;-91
2022/09/04 04:26:49;;;;;;;;;;;;;;;;;;;;;
2022/09/04 04:29:30;;;;;;;9.25;8.25;;;19.80;86.50;;;;;;5077700;28;20111;-92
2022/09/04 04:32:31;;;;;;;8.65;7.75;;;19.80;86.60;;;;;;5060262;28;20051;-91
2022/09/04 04:35:24;;;;;;;8.90;8.00;;;19.80;86.60;;;;;;5060130;28;20044;-91
2022/09/04 04:38:33;;;;;;;9.70;8.25;;;19.70;86.50;;;;;;5059467;28;20027;-90
2022/09/04 04:41:15;;;;;;;9.25;7.75;;;19.80;86.60;;;;;;5059730;28;20021;-91
2022/09/04 04:45:48;;;;;;;;;;;;;;;;;;;;;
2022/09/04 04:51:00;;;;;;;9.15;8.23;;;19.70;86.70;;;;;;5016332;28;20569;-90
2022/09/04 04:54:16;;;;;;;;;;;;;;;;;;;;;
2022/09/04 04:57:22;;;;;;;;;;;;;;;;;;;;;
2022/09/04 05:00:35;;;;;;;9.70;8.70;;;19.70;87.10;;;;;;5016285;28;20108;-91
2022/09/04 05:03:38;;;;;;;8.27;7.53;;;19.70;87.30;;;;;;4991215;28;20037;-92
2022/09/04 05:06:48;;;;;;;9.90;8.80;;;19.60;87.40;;;;;;5002457;28;20176;-89
2022/09/04 05:09:41;;;;;;;8.98;8.05;;;19.60;87.60;;;;;;5059997;28;20027;-91
2022/09/04 05:13:03;;;;;;;9.43;8.20;;;19.60;87.70;;;;;;5062159;28;20132;-90
2022/09/04 05:15:38;;;;;;;8.30;7.50;;;19.70;87.80;;;;;;5042052;28;20052;-91
2022/09/04 05:18:32;;;;;;;;;;;;;;;;;;;;;
2022/09/04 05:21:17;;;;;;;10.25;8.20;;;19.70;87.80;;;;;;5099957;28;20071;-91
2022/09/04 05:24:11;;;;;;;9.20;8.32;;;19.70;87.80;;;;;;5082013;28;20048;-91
2022/09/04 05:27:25;;;;;;;9.60;8.48;;;19.70;87.80;;;;;;5082418;28;20017;-93
2022/09/04 05:30:52;;;;;;;9.48;8.48;;;19.70;88.00;;;;;;5068281;28;20091;-91
2022/09/04 05:33:23;;;;;;;9.52;8.52;;;19.70;87.90;;;;;;5054013;28;20037;-91
2022/09/04 05:36:08;;;;;;;10.47;7.93;;;19.70;88.20;;;;;;5060018;28;20048;-91
2022/09/04 05:39:16;;;;;;;9.75;8.82;;;19.70;88.30;;;;;;5060888;28;20300;-91
2022/09/04 05:42:20;;;;;;;9.95;8.95;;;19.70;88.50;;;;;;5059649;28;20029;-90
2022/09/04 05:45:39;;;;;;;9.00;8.05;;;19.80;88.70;;;;;;5060440;28;20472;-90
2022/09/04 05:48:57;;;;;;;9.57;8.57;;;19.70;88.90;;;;;;5060563;28;20052;-89
2022/09/04 05:52:12;;;;;;;;;;;;;;;;;;;;;
2022/09/04 05:55:15;;;;;;;9.70;8.30;;;19.80;89.10;;;;;;5061616;28;20544;-93
2022/09/04 05:58:16;;;;;;;9.75;8.75;;;19.80;89.10;;;;;;5060212;28;20461;-91
2022/09/04 06:01:22;;;;;;;9.57;8.60;;;19.80;89.20;;;;;;5059665;28;20032;-92
2022/09/04 06:05:21;;;;;;;;;;;;;;;;;;;;;
2022/09/04 06:08:21;;;;;;;8.70;7.80;;;19.80;89.50;;;;;;4942102;29;20103;-89
2022/09/04 06:11:18;;;;;;;;;;;;;;;;;;;;;
2022/09/04 06:14:11;;;;;;;10.40;8.55;;;19.80;89.40;;;;;;5060798;28;20396;-92
2022/09/04 06:17:24;;;;;;;;;;;;;;;;;;;;;
2022/09/04 06:20:25;;;;;;;8.70;7.88;;;19.90;89.40;;;;;;5061297;28;20524;-90
2022/09/04 06:23:09;;;;;;;10.68;8.73;;;19.90;89.40;;;;;;5058524;28;20036;-93
2022/09/04 06:29:16;;;;;;;9.20;8.30;;;20.00;89.40;;;;;;5029782;28;20065;-91
2022/09/04 06:32:04;;;;;;;;;;;20.10;89.40;;;;;;5058771;28;20053;-91
2022/09/04 06:35:13;;;;;;;9.35;8.30;;;20.10;89.30;;;;;;5059460;28;19908;-91
2022/09/04 06:44:38;;;;;;;7.97;7.18;;;20.30;89.50;;;;;;5039395;28;20048;-91
2022/09/04 06:47:22;;;;;;;;;;;20.30;89.30;;;;;;5041641;28;20061;-94
2022/09/04 06:50:26;;;;;;;7.55;6.75;;;20.30;89.30;;;;;;5022266;28;19944;-91
2022/09/04 06:53:07;;;;;;;9.90;7.13;;;20.40;89.50;;;;;;4993705;28;20064;-92
2022/09/04 06:56:19;;;;;;;7.60;6.80;;;20.50;89.40;;;;;;5021326;28;20032;-89
2022/09/04 07:02:45;;;;;;;;;;;;;;;;;;;;;
2022/09/04 07:05:42;;;;;;;9.40;7.80;;;20.80;89.10;;;;;;5048229;28;20413;-90
2022/09/04 07:08:32;;;;;;;8.32;7.47;;;20.80;89.10;;;;;;5059024;28;20032;-91
2022/09/04 07:18:03;;;;;;;7.15;6.45;;;21.10;88.50;;;;;;5024433;28;20144;-90
2022/09/04 07:20:51;;;;;;;7.50;6.60;;;21.20;88.40;;;;;;5069498;28;20063;-90
2022/09/04 07:23:43;;;;;;;7.20;6.50;;;21.30;88.30;;;;;;5076988;28;20033;-89
2022/09/04 07:26:37;;;;;;;8.00;7.25;;;21.30;88.20;;;;;;5065051;28;20032;-91
2022/09/04 07:30:08;;;;;;;7.80;7.00;;;21.40;88.10;;;;;;5058965;28;20024;-91
2022/09/04 07:33:32;;;;;;;10.27;6.72;;;21.40;88.10;;;;;;5038915;28;20041;-90
2022/09/04 07:36:47;;;;;;;8.38;7.03;;;21.50;88.10;;;;;;4939817;29;20042;-87
2022/09/04 07:39:18;;;;;;;7.35;6.65;;;21.50;88.00;;;;;;4935713;29;20400;-88
2022/09/04 07:42:10;;;;;;;8.13;7.32;;;21.60;87.80;;;;;;4956837;29;20055;-87
2022/09/04 07:44:58;;;;;;;8.25;6.90;;;21.70;87.80;;;;;;4972748;28;20041;-86
2022/09/04 07:47:48;;;;;;;8.43;6.35;;;21.60;87.60;;;;;;5038335;28;20138;-87
2022/09/04 07:50:21;;;;;;;6.95;6.25;;;21.70;87.50;;;;;;5039221;28;20026;-87
2022/09/04 07:53:12;;;;;;;7.18;5.88;;;21.80;87.30;;;;;;5037443;28;20030;-86
2022/09/04 07:55:47;;;;;;;7.85;6.88;;;21.90;87.10;;;;;;5036728;28;20105;-87
2022/09/04 07:58:52;;;;;;;7.72;6.22;;;21.90;87.00;;;;;;5035652;28;20051;-85
2022/09/04 08:01:39;;;;;;;5.85;4.93;;;21.90;86.90;;;;;;5031930;28;20034;-84
2022/09/04 08:04:24;;;;;;;6.85;5.25;;;22.00;86.80;;;;;;5033107;28;20065;-86
2022/09/04 08:07:06;;;;;;;6.78;5.95;;;22.10;86.60;;;;;;5033714;28;20030;-84
2022/09/04 08:09:41;;;;;;;7.60;6.90;;;22.20;86.50;;;;;;5034611;28;20076;-86
2022/09/04 08:12:55;;;;;;;8.30;6.45;;;22.20;86.30;;;;;;5033126;28;20091;-85
2022/09/04 08:15:41;;;;;;;7.78;5.88;;;22.30;86.10;;;;;;4938236;29;20034;-88
2022/09/04 08:18:22;;;;;;;6.95;5.90;;;22.40;85.90;;;;;;5034813;28;20100;-84
2022/09/04 08:21:21;;;;;;;6.47;5.78;;;22.50;85.70;;;;;;5032749;28;20036;-87
2022/09/04 08:24:00;;;;;;;6.80;5.97;;;22.60;85.70;;;;;;5033590;28;20037;-86
2022/09/04 08:26:55;;;;;;;5.88;5.28;;;22.60;85.60;;;;;;5032731;28;20487;-85
2022/09/04 08:29:49;;;;;;;;;;;;;;;;;;;;;
2022/09/04 08:32:39;;;;;;;5.90;5.30;;;22.70;85.40;;;;;;5055055;28;20124;-87
2022/09/04 08:35:43;;;;;;;;;;;;;;;;;;;;;
2022/09/04 08:38:44;;;;;;;;;;;;;;;;;;;;;
2022/09/04 08:41:35;;;;;;;5.88;4.50;;;23.00;85.00;;;;;;5055253;28;20021;-86
2022/09/04 08:44:25;;;;;;;4.40;4.00;;;23.00;84.70;;;;;;5053484;28;20069;-87
2022/09/04 08:47:03;;;;;;;;;;;23.10;84.50;;;;;;5055224;28;20026;-85
2022/09/04 08:50:12;;;;;;;4.22;3.83;;;23.20;84.50;;;;;;5055332;28;19905;-86
2022/09/04 08:53:18;;;;;;;6.22;3.90;;;23.20;84.50;;;;;;5054401;28;20472;-87
2022/09/04 08:56:02;;;;;;;5.65;5.03;;;23.30;84.40;;;;;;5040021;28;20424;-86
2022/09/04 08:59:11;;;;;;;6.47;4.82;;;23.30;84.10;;;;;;5053573;28;20116;-86
2022/09/04 09:02:39;;;;;;;4.38;3.75;;;23.40;84.10;;;;;;5053935;28;20491;-87
2022/09/04 09:05:20;;;;;;;4.68;4.18;;;23.50;84.00;;;;;;4977542;28;20110;-85
2022/09/04 09:08:14;;;;;;;6.25;4.60;;;23.60;84.00;;;;;;5054225;28;20027;-86
2022/09/04 09:11:08;;;;;;;5.65;3.72;;;23.70;83.70;;;;;;5057138;28;20032;-87
2022/09/04 09:14:09;;;;;;;4.78;3.70;;;23.80;83.50;;;;;;5063103;28;20453;-85
2022/09/04 09:16:43;;;;;;;5.85;4.78;;;23.80;83.20;;;;;;5065617;28;20021;-87
2022/09/04 09:19:15;;;;;;;5.47;4.22;;;23.90;83.10;;;;;;5072340;28;20092;-87
2022/09/04 09:22:26;;;;;;;4.38;3.45;;;23.90;82.80;;;;;;5075248;28;20012;-85
2022/09/04 09:25:14;;;;;;;;;;;24.00;82.50;;;;;;5061028;28;20096;-88
2022/09/04 09:28:22;;;;;;;4.40;3.65;;;24.10;82.50;;;;;;5074499;28;19947;-87
2022/09/04 09:31:15;;;;;;;4.95;3.92;;;24.20;82.40;;;;;;5070017;28;20052;-84
2022/09/04 09:33:56;;;;;;;4.75;3.95;;;24.20;81.90;;;;;;5059631;28;20025;-86
2022/09/04 09:36:25;;;;;;;;;;;24.30;81.80;;;;;;5053918;28;20021;-85
2022/09/04 09:39:35;;;;;;;4.00;3.28;;;24.40;81.80;;;;;;5053313;28;19931;-86
2022/09/04 09:42:31;;;;;;;4.25;2.88;;;24.50;81.80;;;;;;5053096;28;20032;-88
2022/09/04 09:45:24;;;;;;;3.40;3.10;;;24.60;81.60;;;;;;5030293;28;20045;-86
2022/09/04 09:48:17;;;;;;;3.47;3.17;;;24.60;81.30;;;;;;5052824;28;20090;-87
2022/09/04 09:51:25;;;;;;;3.60;3.28;;;24.70;80.80;;;;;;5053148;28;20440;-86
2022/09/04 09:54:34;;;;;;;;;;;;;;;;;;;;;
2022/09/04 09:57:37;;;;;;;3.53;2.88;;;24.80;80.30;;;;;;5049231;28;20033;-86
2022/09/04 10:00:11;;;;;;;5.97;3.10;;;24.90;80.30;;;;;;5055849;28;20025;-87
2022/09/04 10:03:23;;;;;;;5.88;3.78;;;25.00;80.10;;;;;;5056630;28;20120;-88
2022/09/04 10:06:11;;;;;;;3.88;3.42;;;25.10;79.90;;;;;;5056671;28;20493;-87
2022/09/04 10:09:10;;;;;;;4.50;2.97;;;25.10;79.50;;;;;;5056750;28;20062;-89
2022/09/04 10:11:57;;;;;;;3.70;2.88;;;25.20;79.40;;;;;;5058197;28;20078;-88
2022/09/04 10:15:06;;;;;;;;;;;;;;;;;;;;;
2022/09/04 10:17:59;;;;;;;3.17;2.60;;;25.30;79.40;;;;;;5059849;28;20072;-86
2022/09/04 10:21:10;;;;;;;3.70;3.40;;;25.30;79.10;;;;;;5058400;28;20024;-84
2022/09/04 10:24:06;;;;;;;4.47;3.30;;;25.40;79.10;;;;;;5029146;28;20550;-89
2022/09/04 10:27:13;;;;;;;3.78;3.00;;;25.50;78.90;;;;;;5057752;28;20033;-88
2022/09/04 10:30:05;;;;;;;3.78;2.88;;;25.50;78.70;;;;;;5059964;28;20120;-88
2022/09/04 10:33:17;;;;;;;7.75;3.17;;;25.60;78.40;;;;;;5061454;28;20049;-89
2022/09/04 10:36:08;;;;;;;5.03;3.03;;;25.70;78.30;;;;;;5078067;28;20032;-88
2022/09/04 10:42:24;;;;;;;5.13;3.03;;;25.80;77.70;;;;;;5078870;28;20059;-89
2022/09/04 10:52:06;;;;;;;3.03;2.58;;;25.90;77.00;;;;;;4997384;28;20413;-89
2022/09/04 10:54:46;;;;;;;3.85;2.70;;;26.00;76.90;;;;;;4996056;28;20022;-87
2022/09/04 10:57:31;;;;;;;3.20;2.78;;;26.10;76.80;;;;;;4996883;28;20019;-89
2022/09/04 11:00:28;;;;;;;3.55;2.88;;;26.20;76.70;;;;;;5055887;28;20033;-88
2022/09/04 11:03:17;;;;;;;2.78;2.38;;;26.20;76.30;;;;;;5060074;28;20040;-88
2022/09/04 11:12:50;;;;;;;2.25;1.70;;;26.40;75.60;;;;;;5066739;28;20037;-86
2022/09/04 11:16:02;;;;;;;3.35;1.70;;;26.50;75.50;;;;;;5060187;28;20021;-87
2022/09/04 11:22:04;;;;;;;2.47;2.28;;;26.60;74.70;;;;;;4991354;28;20054;-87
2022/09/04 11:25:00;;;;;;;3.45;2.20;;;26.80;74.30;;;;;;5058903;28;20100;-87
2022/09/04 11:27:53;;;;;;;2.95;2.00;;;26.80;73.80;;;;;;5058075;28;20086;-85
2022/09/04 11:30:47;;;;;;;3.40;2.08;;;26.90;73.20;;;;;;5061607;28;20044;-85
2022/09/04 11:33:22;;;;;;;2.60;2.05;;;27.00;72.90;;;;;;5095871;28;20017;-83
2022/09/04 11:36:40;;;;;;;2.58;2.08;;;27.10;72.70;;;;;;5079443;28;20032;-88
2022/09/04 11:39:30;;;;;;;2.40;2.15;;;27.10;72.20;;;;;;5079757;28;20024;-86
2022/09/04 11:42:19;;;;;;;3.55;2.40;;;27.10;72.10;;;;;;5077035;28;20013;-87
2022/09/04 11:45:15;;;;;;;3.00;2.03;;;27.20;72.10;;;;;;5066981;28;20091;-87
2022/09/04 11:48:12;;;;;;;3.40;1.80;;;27.20;71.10;;;;;;5069311;28;20040;-84
2022/09/04 11:50:55;;;;;;;2.42;1.80;;;27.20;71.10;;;;;;5059786;28;20334;-85
2022/09/04 11:54:12;;;;;;;2.58;1.95;;;27.20;71.10;;;;;;5057145;28;20029;-85
2022/09/04 11:56:46;;;;;;;3.10;1.60;;;27.20;70.90;;;;;;4977096;28;20087;-85
2022/09/04 11:59:27;;;;;;;2.83;1.80;;;27.20;70.90;;;;;;5062966;28;20052;-85
2022/09/04 12:02:05;;;;;;;;;;;27.20;71.00;;;;;;5057852;28;20025;-86
2022/09/04 12:05:02;;;;;;;2.90;1.73;;;27.20;71.10;;;;;;5041745;28;19912;-84
2022/09/04 12:07:49;;;;;;;1.58;1.48;;;27.30;71.00;;;;;;5057714;28;20047;-83
2022/09/04 12:10:54;;;;;;;2.90;1.75;;;27.30;70.90;;;;;;5057662;28;20357;-86
2022/09/04 12:13:46;;;;;;;2.15;1.80;;;27.40;70.80;;;;;;5057491;28;20388;-87
2022/09/04 12:16:31;;;;;;;2.40;1.67;;;27.40;69.90;;;;;;5056748;28;20025;-85
2022/09/04 12:19:25;;;;;;;1.73;1.63;;;27.40;69.70;;;;;;5057067;28;20028;-83
2022/09/04 12:22:35;;;;;;;2.03;1.83;;;27.30;70.50;;;;;;5056849;28;20032;-85
2022/09/04 12:25:22;;;;;;;4.97;3.72;;;27.40;70.20;;;;;;5045650;28;20064;-86
2022/09/04 12:28:36;;;;;;;4.13;2.70;;;27.40;70.30;;;;;;5057266;28;20036;-86
2022/09/04 12:31:11;;;;;;;3.15;2.42;;;27.40;69.90;;;;;;5050208;28;20048;-85
2022/09/04 12:34:03;;;;;;;4.53;2.03;;;27.40;69.80;;;;;;5057183;28;20024;-85
2022/09/04 12:36:37;;;;;;;1.90;1.60;;;27.50;69.70;;;;;;5057414;28;20374;-89
2022/09/04 12:39:31;;;;;;;2.40;1.80;;;27.50;69.80;;;;;;5056842;28;20016;-85
2022/09/04 12:42:06;;;;;;;1.67;1.58;;;27.50;69.80;;;;;;5056880;28;20183;-85
2022/09/04 12:45:00;;;;;;;2.38;1.80;;;27.50;69.70;;;;;;5056915;28;20036;-83
2022/09/04 12:47:56;;;;;;;3.13;1.70;;;27.50;69.60;;;;;;5056833;28;20029;-83
2022/09/04 12:50:28;;;;;;;1.90;1.60;;;27.50;69.50;;;;;;5074784;28;20020;-85
2022/09/04 12:53:01;;;;;;;1.83;1.45;;;27.50;69.40;;;;;;5075273;28;20021;-85
2022/09/04 12:56:02;;;;;;;1.60;1.50;;;27.60;69.40;;;;;;5057877;28;20028;-86
2022/09/04 12:59:12;;;;;;;2.33;1.50;;;27.70;69.40;;;;;;5046259;28;20040;-84
2022/09/04 13:01:55;;;;;;;2.85;1.55;;;27.70;69.30;;;;;;5047924;28;20033;-85
2022/09/04 13:04:28;;;;;;;1.58;1.48;;;27.70;69.10;;;;;;5074069;28;20031;-86
2022/09/04 13:10:25;;;;;;;2.63;1.70;;;27.70;68.80;;;;;;5074071;28;20035;-84
2022/09/04 13:16:53;;;;;;;3.85;2.70;;;27.80;69.10;;;;;;5074535;28;20466;-85
2022/09/04 13:29:56;;;;;;;2.95;2.13;;;27.90;68.80;;;;;;5074977;28;20039;-85
2022/09/04 13:32:46;;;;;;;3.10;1.55;;;27.90;68.80;;;;;;5056191;28;20063;-86
2022/09/04 13:35:24;;;;;;;1.40;1.30;;;28.00;68.60;;;;;;5060382;28;20082;-83
2022/09/04 14:30:23;;;;;;;2.10;1.88;;;28.30;65.80;;;;;;5063232;28;20425;-85
2022/09/04 14:56:48;;;;;;;1.98;1.88;;;28.40;64.50;;;;;;5014317;28;20259;-84
2022/09/04 15:03:22;;;;;;;2.22;1.67;;;28.50;64.00;;;;;;4956681;28;20061;-83
2022/09/04 15:09:27;;;;;;;1.63;1.42;;;28.40;63.40;;;;;;5014182;28;20135;-84
2022/09/04 15:22:05;;;;;;;1.52;1.25;;;28.50;62.10;;;;;;4993377;28;20046;-84
2022/09/04 15:24:42;;;;;;;1.70;1.40;;;28.50;61.90;;;;;;4977061;28;20498;-84
2022/09/04 15:27:25;;;;;;;2.35;1.80;;;28.40;61.60;;;;;;4977809;28;20141;-84
2022/09/04 15:29:50;;;;;;;1.73;1.63;;;28.50;61.60;;;;;;4977303;28;20513;-84
2022/09/04 15:32:24;;;;;;;1.80;1.70;;;28.50;61.60;;;;;;4993904;28;20054;-82
2022/09/04 15:35:22;;;;;;;2.35;1.42;;;28.50;61.40;;;;;;4961322;28;20041;-85
2022/09/04 15:41:44;;;;;;;2.88;1.42;;;28.60;60.90;;;;;;4993811;28;20062;-84
2022/09/04 15:44:27;;;;;;;5.25;3.78;;;28.60;61.20;;;;;;4977211;28;20129;-85
2022/09/04 15:47:23;;;;;;;3.97;3.60;;;28.60;61.10;;;;;;4977445;28;20036;-83
2022/09/04 15:49:59;;;;;;;2.25;1.98;;;28.50;60.70;;;;;;5024305;28;20127;-85
2022/09/04 15:53:09;;;;;;;3.58;1.80;;;28.40;60.40;;;;;;5038545;28;20036;-84
2022/09/04 15:55:44;;;;;;;1.90;1.70;;;28.40;60.50;;;;;;5040449;28;20115;-83
2022/09/04 15:58:14;;;;;;;1.75;1.40;;;28.40;60.50;;;;;;5042655;28;20040;-85
2022/09/04 16:01:05;;;;;;;2.53;1.50;;;28.40;60.50;;;;;;5041533;28;20032;-82
2022/09/04 16:03:43;;;;;;;2.65;1.58;;;28.40;60.40;;;;;;5071323;28;20388;-82
2022/09/04 16:06:31;;;;;;;1.90;1.38;;;28.40;60.60;;;;;;5076811;28;20009;-84
2022/09/04 16:09:15;;;;;;;3.63;3.17;;;28.40;60.70;;;;;;5059860;28;20105;-85
2022/09/04 16:12:16;;;;;;;3.92;3.50;;;28.40;60.60;;;;;;5059659;28;20021;-83
2022/09/04 16:15:03;;;;;;;3.13;2.40;;;28.40;60.60;;;;;;5048727;28;20056;-84
2022/09/04 16:17:37;;;;;;;2.00;1.80;;;28.40;60.20;;;;;;5065298;28;20035;-83
2022/09/04 16:20:21;;;;;;;1.83;1.55;;;28.40;60.10;;;;;;5062348;28;20033;-84
2022/09/04 16:23:08;;;;;;;1.40;1.30;;;28.40;59.90;;;;;;5055685;28;20353;-82
2022/09/04 16:25:41;;;;;;;1.55;1.20;;;28.30;59.60;;;;;;5054302;28;20179;-83
2022/09/04 16:28:17;;;;;;;1.65;1.10;;;28.30;59.60;;;;;;5053635;28;20029;-83
2022/09/04 16:30:55;;;;;;;1.60;1.20;;;28.30;59.50;;;;;;5049193;28;20132;-82
2022/09/04 16:33:38;;;;;;;1.00;0.90;;;28.30;59.30;;;;;;5016155;28;20432;-84
2022/09/04 16:36:21;;;;;;;1.63;1.15;;;28.30;59.00;;;;;;5015712;28;20033;-83
2022/09/04 16:39:15;;;;;;;1.23;1.10;;;28.30;59.00;;;;;;5015551;28;20120;-83
2022/09/04 16:41:53;;;;;;;1.30;1.20;;;28.20;59.00;;;;;;5033101;28;20100;-82
2022/09/04 16:44:31;;;;;;;1.30;1.20;;;28.20;58.90;;;;;;5015150;28;20044;-81
2022/09/04 16:47:20;;;;;;;1.83;1.27;;;28.20;59.00;;;;;;5032776;28;20033;-82
2022/09/04 16:50:11;;;;;;;3.08;1.38;;;28.30;58.80;;;;;;5014867;28;20359;-82
2022/09/04 16:52:42;;;;;;;1.55;1.40;;;28.20;58.80;;;;;;5014979;28;20444;-81
2022/09/04 16:55:25;;;;;;;2.30;1.20;;;28.20;59.10;;;;;;5032544;28;20035;-82
2022/09/04 16:58:19;;;;;;;1.35;1.10;;;28.10;59.20;;;;;;5015060;28;20195;-82
2022/09/04 17:01:03;;;;;;;1.65;1.20;;;28.10;59.10;;;;;;5015261;28;20017;-83
2022/09/04 17:04:01;;;;;;;1.05;0.82;;;28.00;58.90;;;;;;5031544;28;20034;-81
2022/09/04 17:06:43;;;;;;;3.08;1.05;;;28.00;58.90;;;;;;5014694;28;20454;-83
2022/09/04 17:09:37;;;;;;;0.95;0.85;;;27.90;58.60;;;;;;5018828;28;20439;-84
2022/09/04 17:12:29;;;;;;;1.27;1.10;;;27.90;58.60;;;;;;5006555;28;20121;-81
2022/09/04 17:15:23;;;;;;;1.50;1.20;;;27.80;58.90;;;;;;5019393;28;20450;-82
2022/09/04 17:17:52;;;;;;;7.05;6.35;;;27.80;58.70;;;;;;5035755;28;20036;-82
2022/09/04 17:20:49;;;;;;;5.68;4.30;;;27.80;58.90;;;;;;5003507;28;20121;-83
2022/09/04 17:23:22;;;;;;;4.22;3.78;;;27.70;59.00;;;;;;5021622;28;20488;-81
2022/09/04 17:26:06;;;;;;;2.80;2.40;;;27.60;59.20;;;;;;5019201;28;20029;-82
2022/09/04 17:28:43;;;;;;;3.17;1.92;;;27.60;59.40;;;;;;5036766;28;20026;-84
2022/09/04 17:31:27;;;;;;;1.63;1.35;;;27.50;59.20;;;;;;5025233;28;20041;-82
2022/09/04 17:34:05;;;;;;;1.92;1.30;;;27.50;59.90;;;;;;5038832;28;20040;-82
2022/09/04 17:36:52;;;;;;;1.70;1.13;;;27.40;59.30;;;;;;5049301;28;20368;-83
2022/09/04 17:39:49;;;;;;;1.05;0.82;;;27.40;59.60;;;;;;5056930;28;20029;-82
2022/09/04 17:42:25;;;;;;;3.50;1.33;;;27.30;59.80;;;;;;5037027;28;20025;-82
2022/09/04 17:45:09;;;;;;;1.27;1.17;;;27.20;59.90;;;;;;5034676;28;20084;-82
2022/09/04 17:47:41;;;;;;;1.13;0.90;;;27.20;59.90;;;;;;5048997;28;20025;-83
2022/09/04 17:50:19;;;;;;;1.98;1.10;;;27.10;60.00;;;;;;5056000;28;20025;-82
2022/09/04 17:52:56;;;;;;;1.58;1.08;;;27.10;60.00;;;;;;5056057;28;20037;-82
2022/09/04 17:55:23;;;;;;;1.25;1.00;;;27.10;60.10;;;;;;5056890;28;20029;-84
2022/09/04 17:58:02;;;;;;;1.27;1.02;;;27.00;60.40;;;;;;5038631;28;20029;-83
2022/09/04 18:00:54;;;;;;;1.10;1.00;;;27.00;60.80;;;;;;5056943;28;20111;-83
2022/09/04 18:03:32;;;;;;;1.35;1.23;;;26.90;61.20;;;;;;5039897;28;20115;-85
2022/09/04 18:06:08;;;;;;;1.52;1.30;;;26.80;61.20;;;;;;5039617;28;20481;-83
2022/09/04 18:08:43;;;;;;;1.50;1.25;;;26.70;61.30;;;;;;5056957;28;20100;-84
2022/09/04 18:11:31;;;;;;;1.73;1.30;;;26.70;61.50;;;;;;5056905;28;20030;-84
2022/09/04 18:14:23;;;;;;;1.80;1.33;;;26.60;61.70;;;;;;5063351;28;20108;-92
2022/09/04 18:17:15;;;;;;;1.77;1.33;;;26.50;61.90;;;;;;5045705;28;20021;-91
2022/09/04 18:20:11;;;;;;;1.98;1.30;;;26.50;62.20;;;;;;5046337;28;20021;-91
2022/09/04 18:23:37;;;;;;;;;;;;;;;;;;;;;
2022/09/04 18:26:47;;;;;;;1.13;1.02;;;26.30;62.30;;;;;;5078775;28;20025;-92
2022/09/04 18:44:28;;;;;;;;;;;;;;;;;;;;;
2022/09/04 18:47:19;;;;;;;1.95;1.30;;;25.70;63.50;;;;;;4961057;29;20110;-92
2022/09/04 18:57:07;;;;;;;;;;;;;;;;;;;;;
2022/09/04 19:03:32;;;;;;;1.98;1.40;;;25.30;64.40;;;;;;5037924;28;20057;-90
2022/09/04 19:09:42;;;;;;;1.30;1.20;;;25.10;64.80;;;;;;4999678;28;20105;-89
2022/09/04 19:12:19;;;;;;;2.72;1.45;;;25.00;65.10;;;;;;5019215;28;20073;-92
2022/09/04 19:15:09;;;;;;;;;;;;;;;;;;;;;